HGR weather

Hagerstown Regional Richard A Henson Field
Hagerstown, Maryland, United States

Public forecast

Using degrees Fahrenheit for public forecast. Weather courtesy of forecast.io.

METAR (pilot weather report)

Retrieved 2019/05/23 11:53 UTC (1 hour ago):

KHGR 231153Z 17003KT 10SM OVC090 18/12 A3014 RMK AO2 SLP213 T01830122 10183 20178 53003

TAF (pilot weather forecast)

Closest forecast is Eastern WV Regional Airport/Shepherd Field, 21.8 nm (40.4 km) SSW. Retrieved 2019/05/23 12:36 UTC (23 minutes ago):

TAF KMRB 231134Z 2312/2412 VRB03KT P6SM SCT080 SCT200 FM231400 20007KT P6SM SCT050 SCT200 FM231800 23011G18KT 6SM SHRA VCTS BKN050CB FM232200 26010KT P6SM BKN060 FM240400 30009KT P6SM SCT080 SCT200